METAR AND TAF INFORMATION
METAR FOR LFBO
ADDS - METARS form results

(1159 UTC 13 June 2021)
Data provider http://aviationweather.gov/metar/data/
 
METAR text: LFBO 131130Z AUTO VRB04KT CAVOK 31/18 Q1021 NOSIG
Conditions at: LFBO (TOULOUSE/BLAGNAC, FR) observed 1130 UTC 13 June 2021
Temperature: 31.0°C (88°F)
Dewpoint: 18.0°C (64°F) [RH = 46%]
Pressure (altimeter): 30.15 inches Hg (1021.0 mb)
Winds: variable direction winds at 5 MPH (4 knots; 2.1 m/s)
Visibility: 6 or more miles (10+ km)
Ceiling: ceiling and visibility are OK
Clouds: unknown
Weather: no significant weather observed at this time

METAR text: LFBO 131100Z AUTO 35004KT 290V090 CAVOK 31/18 Q1022 NOSIG
Conditions at: LFBO (TOULOUSE/BLAGNAC, FR) observed 1100 UTC 13 June 2021
Temperature: 31.0°C (88°F)
Dewpoint: 18.0°C (64°F) [RH = 46%]
Pressure (altimeter): 30.18 inches Hg (1022.0 mb)
Winds: from the N (350 degrees) at 5 MPH (4 knots; 2.1 m/s)
Visibility: 6 or more miles (10+ km)
Ceiling: ceiling and visibility are OK
Clouds: unknown
Weather: no significant weather observed at this time

Forecast for: LFBO (TOULOUSE/BLAGNAC, FR)
Text: TAF LFBO 131100Z 1312/1418 30010KT CAVOK
Forecast period: 1200 UTC 13 June 2021 to 1800 UTC 14 June 2021
Forecast type: FROM: standard forecast or significant change
Winds: from the WNW (300 degrees) at 12 MPH (10 knots; 5.1 m/s)
Visibility: 6 or more miles (10+ km)
Ceiling: unknown
Clouds: missing
Weather: NSW  (no significant weather)
Text: TEMPO 1400/1409 VRB02KT
Forecast period: 0000 to 0900 UTC 14 June 2021
Forecast type: TEMPORARY: The following changes expected for less than half the time period
Winds: variable direction winds at 2 MPH (2 knots; 1.0 m/s)
Visibility: missing
Ceiling: unknown
Clouds: missing
Weather: no significant weather forecast for this period

 AIRPORT MAP

 RUNWAY INFORMATION
Runway 14L Runway length 9843 ft Runway width 148 ft
Runway elevation 490 ft Runway displaced threshold 0 ft Runway heading 143
Runway 32R Runway length 9843 ft Runway width 148 ft
Runway elevation 497 ft Runway displaced threshold 0 ft Runway heading 323
Runway 14R Runway length 11483 ft Runway width 148 ft
Runway elevation 488 ft Runway displaced threshold 0 ft Runway heading 143
Runway 32L Runway length 11483 ft Runway width 148 ft
Runway elevation 497 ft Runway displaced threshold 0 ft Runway heading 323

 AIRPORT FREQUENCIES
Type AFIS Name TOULOUSE I Frequency 121.25 MHZ
Type APP Name APP Frequency 121.1 MHZ
Type APP Name TOULOUSE A Frequency 125.175 MHZ
Type ATIS Name ATIS Frequency 123.125 MHZ
Type CLD Name CLNC DEL Frequency 121.7 MHZ
Type GND Name GND Frequency 121.9 MHZ
Type TWR Name TWR Frequency 118.1 MHZ

 AIRPORT NEAR NAVIGATION AIDS
Type NDB Name Toulouse Frequency 415 KHZ
Type VOR-DME Name Toulouse Frequency 117700 KHZ
Type NDB Name Toulouse Frequency 423 KHZ
Type NDB Name Toulouse Frequency 406 KHZ